createdAt,value
2022-10-26T00:02:24.089Z,101487.72
2022-10-26T00:04:52.042Z,101481.88
2022-10-26T00:07:19.979Z,101477.97
2022-10-26T00:09:49.327Z,101478.28
2022-10-26T00:12:17.265Z,101484.81
2022-10-26T00:14:45.255Z,101480.69
2022-10-26T00:17:13.172Z,101479.50
2022-10-26T00:19:41.302Z,101476.22
2022-10-26T00:22:09.325Z,101481.00
2022-10-26T00:24:37.340Z,101480.00
2022-10-26T00:27:06.570Z,101478.97
2022-10-26T00:29:34.519Z,101485.84
2022-10-26T00:32:02.824Z,101486.00
2022-10-26T00:34:31.213Z,101484.63
2022-10-26T00:36:59.941Z,101479.16
2022-10-26T00:39:27.865Z,101472.84
2022-10-26T00:41:55.853Z,101474.88
2022-10-26T00:45:01.976Z,101472.78
2022-10-26T00:47:37.054Z,101475.03
2022-10-26T00:50:09.259Z,101466.47
2022-10-26T00:52:38.471Z,101475.38
2022-10-26T00:55:08.563Z,101472.28
2022-10-26T00:57:38.656Z,101477.63
2022-10-26T01:00:09.965Z,101470.09
2022-10-26T01:02:38.068Z,101472.13
2022-10-26T01:05:07.460Z,101468.75
2022-10-26T01:07:35.878Z,101464.59
2022-10-26T01:10:03.957Z,101465.28
2022-10-26T01:12:32.132Z,101457.78
2022-10-26T01:15:00.298Z,101454.69
2022-10-26T01:17:42.136Z,101455.84
2022-10-26T01:20:40.392Z,101451.09
2022-10-26T01:23:17.164Z,101452.97
2022-10-26T01:26:17.603Z,101445.97
2022-10-26T01:29:08.145Z,101444.59
2022-10-26T01:31:43.249Z,101444.38
2022-10-26T01:34:17.791Z,101445.59
2022-10-26T01:36:53.975Z,101434.63
2022-10-26T01:39:28.396Z,101425.91
2022-10-26T01:42:01.161Z,101418.19
2022-10-26T01:44:33.729Z,101415.09
2022-10-26T01:47:05.277Z,101417.66
2022-10-26T01:49:37.963Z,101421.97
2022-10-26T01:52:06.529Z,101427.44
2022-10-26T01:57:13.878Z,101416.84
2022-10-26T01:59:57.684Z,101413.28
2022-10-26T02:02:42.958Z,101421.81
2022-10-26T02:05:34.176Z,101411.25
2022-10-26T02:08:24.563Z,101410.56
2022-10-26T02:11:11.205Z,101409.53
2022-10-26T02:13:44.651Z,101409.03
2022-10-26T02:16:21.891Z,101408.00
2022-10-26T02:18:57.417Z,101402.19
2022-10-26T02:21:32.551Z,101408.31
2022-10-26T02:24:00.766Z,101401.47
2022-10-26T02:26:31.360Z,101400.25
2022-10-26T02:29:03.869Z,101399.94
2022-10-26T02:31:33.826Z,101389.81
2022-10-26T02:34:08.314Z,101389.50
2022-10-26T02:36:40.011Z,101391.38
2022-10-26T02:39:10.396Z,101385.22
2022-10-26T02:41:40.597Z,101392.59
2022-10-26T02:44:14.326Z,101390.72
2022-10-26T02:46:43.596Z,101390.50
2022-10-26T02:49:13.778Z,101379.41
2022-10-26T02:54:26.387Z,101384.19
2022-10-26T02:56:59.124Z,101387.97
2022-10-26T02:59:31.722Z,101385.22
2022-10-26T03:01:59.736Z,101381.78
2022-10-26T03:04:34.422Z,101381.28
2022-10-26T03:07:03.466Z,101379.41
2022-10-26T03:09:31.444Z,101381.78
2022-10-26T03:11:59.619Z,101376.31
2022-10-26T03:14:27.751Z,101368.28
2022-10-26T03:16:55.781Z,101362.13
2022-10-26T03:19:23.961Z,101366.41
2022-10-26T03:21:53.222Z,101362.31
2022-10-26T03:24:21.073Z,101362.13
2022-10-26T03:26:48.925Z,101359.03
2022-10-26T03:29:16.943Z,101356.63
2022-10-26T03:31:44.840Z,101357.34
2022-10-26T03:34:13.962Z,101356.13
2022-10-26T03:36:41.857Z,101353.53
2022-10-26T03:39:11.186Z,101345.31
2022-10-26T03:41:39.035Z,101346.38
2022-10-26T03:44:06.969Z,101357.13
2022-10-26T03:46:35.062Z,101354.94
2022-10-26T03:49:02.955Z,101350.50
2022-10-26T03:51:31.063Z,101350.69
2022-10-26T03:53:58.973Z,101352.88
2022-10-26T03:56:28.539Z,101352.22
2022-10-26T03:58:56.482Z,101346.59
2022-10-26T04:01:24.610Z,101347.94
2022-10-26T04:03:52.528Z,101350.50
2022-10-26T04:06:20.556Z,101341.25
2022-10-26T04:08:48.511Z,101349.16
2022-10-26T04:11:16.448Z,101348.97
2022-10-26T04:13:45.736Z,101346.44
2022-10-26T04:16:13.597Z,101351.19
2022-10-26T04:18:41.476Z,101343.00
2022-10-26T04:21:09.309Z,101340.09
2022-10-26T04:23:37.159Z,101345.06
2022-10-26T04:26:06.649Z,101345.06
2022-10-26T04:28:35.251Z,101340.78
2022-10-26T04:31:04.656Z,101340.78
2022-10-26T04:33:33.031Z,101341.13
2022-10-26T04:36:02.069Z,101344.56
2022-10-26T04:38:30.221Z,101346.59
2022-10-26T04:40:58.321Z,101350.03
2022-10-26T04:43:26.410Z,101345.56
2022-10-26T04:45:57.432Z,101344.91
2022-10-26T04:48:27.018Z,101344.19
2022-10-26T04:50:54.974Z,101335.69
2022-10-26T04:53:22.829Z,101347.28
2022-10-26T04:55:50.670Z,101340.97
2022-10-26T04:58:18.517Z,101342.88
2022-10-26T05:00:46.456Z,101349.00
2022-10-26T05:03:14.309Z,101341.81
2022-10-26T05:05:43.769Z,101345.91
2022-10-26T05:08:11.675Z,101349.56
2022-10-26T05:10:39.598Z,101347.31
2022-10-26T05:13:07.674Z,101340.16
2022-10-26T05:15:35.690Z,101350.06
2022-10-26T05:18:06.534Z,101348.66
2022-10-26T05:20:36.173Z,101339.78
2022-10-26T05:23:07.414Z,101344.06
2022-10-26T05:25:37.859Z,101347.81
2022-10-26T05:28:08.073Z,101350.50
2022-10-26T05:30:36.515Z,101341.13
2022-10-26T05:33:04.424Z,101348.66
2022-10-26T05:35:33.884Z,101343.00
2022-10-26T05:38:09.740Z,101346.44
2022-10-26T05:40:38.146Z,101344.56
2022-10-26T05:43:06.194Z,101342.72
2022-10-26T05:45:34.048Z,101349.72
2022-10-26T05:48:03.042Z,101338.41
2022-10-26T05:50:31.540Z,101336.91
2022-10-26T05:52:59.629Z,101342.88
2022-10-26T05:55:29.707Z,101339.13
2022-10-26T05:57:58.129Z,101334.84
2022-10-26T06:00:28.664Z,101342.34
2022-10-26T06:03:08.763Z,101333.47
2022-10-26T06:05:39.893Z,101333.28
2022-10-26T06:08:11.417Z,101323.72
2022-10-26T06:10:41.669Z,101324.03
2022-10-26T06:13:10.062Z,101329.34
2022-10-26T06:15:48.166Z,101322.84
2022-10-26T06:18:26.829Z,101320.78
2022-10-26T06:21:11.258Z,101328.31
2022-10-26T06:23:49.898Z,101331.06
2022-10-26T06:26:31.228Z,101328.50
2022-10-26T06:29:11.235Z,101327.13
2022-10-26T06:31:39.212Z,101328.66
2022-10-26T06:34:07.211Z,101331.22
2022-10-26T06:36:36.107Z,101316.66
2022-10-26T06:39:07.968Z,101322.19
2022-10-26T06:41:38.142Z,101325.09
2022-10-26T06:44:07.112Z,101320.47
2022-10-26T06:46:42.774Z,101325.44
2022-10-26T06:49:21.077Z,101319.28
2022-10-26T06:51:54.622Z,101328.50
2022-10-26T06:54:25.677Z,101329.50
2022-10-26T06:56:55.758Z,101330.22
2022-10-26T06:59:33.890Z,101326.81
2022-10-26T07:02:05.597Z,101331.06
2022-10-26T07:04:34.834Z,101337.09
2022-10-26T07:07:03.042Z,101334.69
2022-10-26T07:09:31.135Z,101336.75
2022-10-26T07:12:00.819Z,101338.94
2022-10-26T07:14:28.767Z,101344.72
2022-10-26T07:16:57.040Z,101344.25
2022-10-26T07:19:25.153Z,101340.16
2022-10-26T07:21:56.617Z,101338.06
2022-10-26T07:24:24.624Z,101341.34
2022-10-26T07:26:54.621Z,101338.28
2022-10-26T07:29:24.377Z,101341.31
2022-10-26T07:34:22.023Z,101344.56
2022-10-26T07:36:51.695Z,101346.63
2022-10-26T07:39:22.140Z,101352.97
2022-10-26T07:41:50.345Z,101343.59
2022-10-26T07:44:18.291Z,101343.25
2022-10-26T07:46:47.475Z,101343.22
2022-10-26T07:49:19.144Z,101335.53
2022-10-26T07:51:47.602Z,101335.00
2022-10-26T07:54:15.538Z,101329.38
2022-10-26T07:56:43.441Z,101326.44
2022-10-26T07:59:13.126Z,101331.56
2022-10-26T08:01:41.334Z,101333.97
2022-10-26T08:04:10.913Z,101325.59
2022-10-26T08:06:38.976Z,101327.28
2022-10-26T08:09:07.171Z,101328.13
2022-10-26T08:11:37.031Z,101326.41
2022-10-26T08:14:05.869Z,101331.03
2022-10-26T08:16:34.905Z,101333.06
2022-10-26T08:19:02.952Z,101331.03
2022-10-26T08:21:39.551Z,101342.63
2022-10-26T08:24:08.666Z,101336.31
2022-10-26T08:26:36.748Z,101340.97
2022-10-26T08:29:04.829Z,101352.25
2022-10-26T08:31:32.735Z,101348.31
2022-10-26T08:34:01.815Z,101340.44
2022-10-26T08:36:30.092Z,101344.03
2022-10-26T08:41:37.946Z,101337.66
2022-10-26T08:44:21.679Z,101337.31
2022-10-26T08:46:54.493Z,101336.28
2022-10-26T08:49:26.256Z,101338.53
2022-10-26T08:51:58.938Z,101346.03
2022-10-26T08:54:37.283Z,101346.53
2022-10-26T08:57:15.809Z,101347.53
2022-10-26T08:59:50.287Z,101342.69
2022-10-26T09:02:18.986Z,101341.16
2022-10-26T09:04:47.158Z,101339.63
2022-10-26T09:07:27.246Z,101325.53
2022-10-26T09:10:05.421Z,101327.91
2022-10-26T09:12:47.211Z,101337.69
2022-10-26T09:15:23.805Z,101328.22
2022-10-26T09:17:59.144Z,101333.56
2022-10-26T09:20:49.071Z,101329.88
2022-10-26T09:23:30.372Z,101331.94
2022-10-26T09:26:02.436Z,101332.81
2022-10-26T09:28:36.635Z,101340.16
2022-10-26T09:31:05.852Z,101335.63
2022-10-26T09:33:38.863Z,101339.19
2022-10-26T09:36:11.982Z,101333.84
2022-10-26T09:38:47.769Z,101341.16
2022-10-26T09:41:26.101Z,101337.69
2022-10-26T09:44:02.796Z,101348.13
2022-10-26T09:46:35.775Z,101354.56
2022-10-26T09:49:07.752Z,101352.50
2022-10-26T09:51:38.040Z,101344.16
2022-10-26T09:54:14.809Z,101349.75
2022-10-26T09:56:45.889Z,101352.44
2022-10-26T09:59:15.792Z,101356.97
2022-10-26T10:01:43.901Z,101367.56
2022-10-26T10:04:20.203Z,101370.19
2022-10-26T10:06:49.473Z,101363.00
2022-10-26T10:09:19.315Z,101365.47
2022-10-26T10:11:55.360Z,101371.09
2022-10-26T10:14:25.319Z,101379.06
2022-10-26T10:16:56.144Z,101367.03
2022-10-26T10:19:27.935Z,101381.41
2022-10-26T10:21:58.721Z,101385.38
2022-10-26T10:24:29.259Z,101375.56
2022-10-26T10:27:01.275Z,101374.91
2022-10-26T10:29:31.053Z,101374.09
2022-10-26T10:32:01.026Z,101376.63
2022-10-26T10:34:31.924Z,101374.94
2022-10-26T10:37:01.862Z,101380.22
2022-10-26T10:39:39.654Z,101374.28
2022-10-26T10:42:19.659Z,101368.50
2022-10-26T10:44:52.292Z,101380.25
2022-10-26T10:47:24.063Z,101369.16
2022-10-26T10:49:55.722Z,101380.06
2022-10-26T10:52:27.403Z,101376.94
2022-10-26T10:55:08.940Z,101387.06
2022-10-26T10:57:52.507Z,101386.13
2022-10-26T11:00:25.673Z,101363.09
2022-10-26T11:03:16.714Z,101360.53
2022-10-26T11:05:55.521Z,101355.59
2022-10-26T11:08:30.117Z,101350.00
2022-10-26T11:11:02.891Z,101353.97
2022-10-26T11:13:38.355Z,101357.50
2022-10-26T11:16:13.592Z,101350.22
2022-10-26T11:18:45.588Z,101348.84
2022-10-26T11:21:24.274Z,101370.34
2022-10-26T11:24:01.764Z,101370.91
2022-10-26T11:26:34.961Z,101382.13
2022-10-26T11:29:08.523Z,101376.78
2022-10-26T11:31:41.388Z,101375.34
2022-10-26T11:34:20.795Z,101380.00
2022-10-26T11:36:55.058Z,101392.50
2022-10-26T11:39:32.972Z,101392.72
2022-10-26T11:42:05.425Z,101406.28
2022-10-26T11:44:41.025Z,101398.31
2022-10-26T11:47:15.984Z,101394.66
2022-10-26T11:49:49.215Z,101400.81
2022-10-26T11:52:23.747Z,101404.16
2022-10-26T11:54:55.750Z,101394.72
2022-10-26T11:57:25.009Z,101392.41
2022-10-26T11:59:57.062Z,101402.56
2022-10-26T12:02:26.972Z,101403.59
2022-10-26T12:05:00.166Z,101400.13
2022-10-26T12:07:32.471Z,101393.00
2022-10-26T12:10:02.674Z,101403.44
2022-10-26T12:12:39.397Z,101399.28
2022-10-26T12:15:24.833Z,101404.16
2022-10-26T12:18:07.342Z,101408.72
2022-10-26T12:21:02.846Z,101414.78
2022-10-26T12:26:39.930Z,101416.09
2022-10-26T12:29:29.367Z,101420.78
2022-10-26T12:32:00.535Z,101416.63
2022-10-26T12:34:58.713Z,101414.81
2022-10-26T12:37:36.933Z,101419.38
2022-10-26T12:40:43.829Z,101428.75
2022-10-26T12:43:37.856Z,101443.25
2022-10-26T12:46:39.015Z,101462.09
2022-10-26T12:49:45.842Z,101448.78
2022-10-26T12:52:29.066Z,101452.44
2022-10-26T12:55:41.533Z,101461.63
2022-10-26T12:58:46.777Z,101460.88
2022-10-26T13:04:38.846Z,101443.25
2022-10-26T13:07:29.036Z,101436.25
2022-10-26T13:10:02.386Z,101443.13
2022-10-26T13:12:39.705Z,101449.03
2022-10-26T13:15:21.625Z,101451.34
2022-10-26T13:18:08.968Z,101457.66
2022-10-26T13:20:52.357Z,101457.38
2022-10-26T13:23:26.778Z,101471.03
2022-10-26T13:26:12.058Z,101477.66
2022-10-26T13:28:51.982Z,101478.78
2022-10-26T13:31:57.018Z,101474.94
2022-10-26T13:34:28.637Z,101470.13
2022-10-26T13:37:17.072Z,101467.66
2022-10-26T13:39:47.601Z,101480.47
2022-10-26T13:42:19.298Z,101487.56
2022-10-26T13:44:53.782Z,101481.34
2022-10-26T13:47:28.322Z,101489.00
2022-10-26T13:50:05.182Z,101481.59
2022-10-26T13:52:38.079Z,101488.47
2022-10-26T13:55:11.147Z,101487.56
2022-10-26T13:57:43.893Z,101493.06
2022-10-26T14:00:20.351Z,101487.16
2022-10-26T14:02:48.777Z,101495.63
2022-10-26T14:05:19.594Z,101483.47
2022-10-26T14:07:55.865Z,101488.34
2022-10-26T14:10:28.930Z,101490.63
2022-10-26T14:12:57.203Z,101508.47
2022-10-26T14:15:27.934Z,101506.19
2022-10-26T14:17:56.935Z,101501.47
2022-10-26T14:20:27.371Z,101523.09
2022-10-26T14:22:57.009Z,101508.31
2022-10-26T14:25:36.220Z,101509.06
2022-10-26T14:28:22.898Z,101514.16
2022-10-26T14:30:52.296Z,101521.00
2022-10-26T14:33:21.682Z,101514.91
2022-10-26T14:35:50.295Z,101507.94
2022-10-26T14:38:26.429Z,101514.28
2022-10-26T14:40:57.252Z,101525.75
2022-10-26T14:43:26.910Z,101523.84
2022-10-26T14:45:56.826Z,101533.03
2022-10-26T14:48:30.016Z,101532.31
2022-10-26T14:50:58.950Z,101541.44
2022-10-26T14:53:35.527Z,101537.91
2022-10-26T14:56:06.772Z,101543.91
2022-10-26T14:58:36.136Z,101551.78
2022-10-26T15:01:18.483Z,101557.09
2022-10-26T15:03:49.773Z,101555.31
2022-10-26T15:06:34.326Z,101564.97
2022-10-26T15:09:06.805Z,101567.09
2022-10-26T15:11:36.524Z,101577.72
2022-10-26T15:14:04.632Z,101570.31
2022-10-26T15:16:36.097Z,101589.13
2022-10-26T15:19:10.808Z,101589.59
2022-10-26T15:21:41.087Z,101600.31
2022-10-26T15:24:36.057Z,101600.88
2022-10-26T15:27:15.757Z,101601.06
2022-10-26T15:29:45.571Z,101611.81
2022-10-26T15:32:29.790Z,101610.66
2022-10-26T15:35:25.406Z,101620.72
2022-10-26T15:37:55.665Z,101626.88
2022-10-26T15:42:55.179Z,101621.69
2022-10-26T15:45:24.701Z,101629.75
2022-10-26T15:47:54.667Z,101627.19
2022-10-26T15:50:24.976Z,101628.59
2022-10-26T15:53:00.965Z,101630.88
2022-10-26T15:55:32.264Z,101640.47
2022-10-26T15:58:00.145Z,101637.03
2022-10-26T16:00:28.583Z,101638.47
2022-10-26T16:02:57.073Z,101632.88
2022-10-26T16:05:25.073Z,101631.44
2022-10-26T16:07:53.232Z,101626.78
2022-10-26T16:10:25.841Z,101637.25
2022-10-26T16:12:55.529Z,101645.28
2022-10-26T16:15:25.460Z,101647.88
2022-10-26T16:17:54.006Z,101652.06
2022-10-26T16:20:24.395Z,101659.84
2022-10-26T16:22:53.814Z,101649.59
2022-10-26T16:25:24.434Z,101648.63
2022-10-26T16:27:53.400Z,101655.09
2022-10-26T16:30:25.905Z,101651.47
2022-10-26T16:32:56.269Z,101653.16
2022-10-26T16:35:24.647Z,101662.00
2022-10-26T16:37:52.838Z,101663.13
2022-10-26T16:40:20.868Z,101668.00
2022-10-26T16:42:49.233Z,101673.19
2022-10-26T16:45:17.739Z,101669.22
2022-10-26T16:47:47.751Z,101669.41
2022-10-26T16:50:16.598Z,101673.50
2022-10-26T16:52:47.409Z,101671.50
2022-10-26T16:55:15.606Z,101674.34
2022-10-26T16:57:43.495Z,101669.50
2022-10-26T17:00:12.311Z,101675.28
2022-10-26T17:02:41.059Z,101678.69
2022-10-26T17:05:10.847Z,101670.78
2022-10-26T17:07:38.871Z,101674.69
2022-10-26T17:10:10.119Z,101677.81
2022-10-26T17:12:37.981Z,101682.25
2022-10-26T17:15:09.653Z,101679.06
2022-10-26T17:17:37.810Z,101684.56
2022-10-26T17:20:07.171Z,101693.25
2022-10-26T17:22:36.384Z,101701.41
2022-10-26T17:25:04.585Z,101702.94
2022-10-26T17:27:33.530Z,101706.25
2022-10-26T17:30:02.852Z,101717.00
2022-10-26T17:32:32.150Z,101713.22
2022-10-26T17:35:02.335Z,101710.25
2022-10-26T17:37:30.766Z,101713.84
2022-10-26T17:40:00.422Z,101724.97
2022-10-26T17:42:28.534Z,101723.22
2022-10-26T17:44:56.614Z,101724.97
2022-10-26T17:47:24.576Z,101723.34
2022-10-26T17:49:52.532Z,101731.78
2022-10-26T17:52:20.614Z,101729.97
2022-10-26T17:54:48.505Z,101738.25
2022-10-26T17:57:17.808Z,101746.75
2022-10-26T17:59:45.780Z,101742.50
2022-10-26T18:02:14.177Z,101750.38
2022-10-26T18:04:42.399Z,101761.09
2022-10-26T18:07:10.354Z,101760.59
2022-10-26T18:09:38.413Z,101767.63
2022-10-26T18:12:07.507Z,101768.78
2022-10-26T18:14:37.214Z,101769.50
2022-10-26T18:17:05.304Z,101773.63
2022-10-26T18:19:34.090Z,101772.38
2022-10-26T18:22:02.866Z,101775.19
2022-10-26T18:24:31.078Z,101776.28
2022-10-26T18:26:59.452Z,101784.91
2022-10-26T18:29:27.486Z,101783.88
2022-10-26T18:31:56.951Z,101786.38
2022-10-26T18:34:25.150Z,101786.81
2022-10-26T18:36:54.485Z,101792.00
2022-10-26T18:39:22.469Z,101801.41
2022-10-26T18:41:50.832Z,101799.38
2022-10-26T18:44:19.755Z,101805.88
2022-10-26T18:46:51.880Z,101805.88
2022-10-26T18:49:21.427Z,101811.38
2022-10-26T18:51:49.496Z,101811.22
2022-10-26T18:54:17.426Z,101813.09
2022-10-26T18:56:45.466Z,101811.75
2022-10-26T18:59:13.698Z,101815.84
2022-10-26T19:01:42.421Z,101813.63
2022-10-26T19:04:11.601Z,101819.31
2022-10-26T19:06:45.106Z,101823.47
2022-10-26T19:09:12.896Z,101831.63
2022-10-26T19:11:42.382Z,101832.38
2022-10-26T19:14:10.387Z,101826.72
2022-10-26T19:16:47.454Z,101831.25
2022-10-26T19:19:17.059Z,101832.94
2022-10-26T19:21:47.258Z,101843.56
2022-10-26T19:24:18.041Z,101834.69
2022-10-26T19:26:47.162Z,101840.00
2022-10-26T19:29:16.862Z,101850.13
2022-10-26T19:31:46.421Z,101847.00
2022-10-26T19:34:16.540Z,101850.47
2022-10-26T19:36:47.293Z,101848.75
2022-10-26T19:39:16.773Z,101852.56
2022-10-26T19:41:46.202Z,101859.56
2022-10-26T19:44:15.448Z,101869.00
2022-10-26T19:46:44.275Z,101866.56
2022-10-26T19:49:13.507Z,101868.63
2022-10-26T19:51:41.580Z,101867.41
2022-10-26T19:54:10.854Z,101874.13
2022-10-26T19:56:39.521Z,101871.94
2022-10-26T19:59:09.376Z,101872.59
2022-10-26T20:01:37.648Z,101878.97
2022-10-26T20:04:06.343Z,101873.47
2022-10-26T20:06:36.755Z,101886.19
2022-10-26T20:09:05.898Z,101883.31
2022-10-26T20:11:38.107Z,101892.06
2022-10-26T20:14:07.629Z,101886.38
2022-10-26T20:16:35.816Z,101891.56
2022-10-26T20:19:05.218Z,101895.13
2022-10-26T20:21:33.774Z,101889.84
2022-10-26T20:24:02.474Z,101893.81
2022-10-26T20:26:31.886Z,101900.66
2022-10-26T20:29:04.226Z,101910.13
2022-10-26T20:31:32.721Z,101906.31
2022-10-26T20:34:00.758Z,101907.19
2022-10-26T20:36:28.661Z,101913.88
2022-10-26T20:38:58.023Z,101912.16
2022-10-26T20:41:27.211Z,101914.06
2022-10-26T20:43:57.988Z,101915.50
2022-10-26T20:46:29.127Z,101913.75
2022-10-26T20:48:57.738Z,101922.16
2022-10-26T20:51:47.601Z,101919.63
2022-10-26T20:54:30.300Z,101925.97
2022-10-26T20:57:01.773Z,101922.72
2022-10-26T20:59:36.728Z,101928.88
2022-10-26T21:02:06.415Z,101934.03
2022-10-26T21:04:34.472Z,101929.38
2022-10-26T21:07:02.661Z,101931.63
2022-10-26T21:09:32.938Z,101935.91
2022-10-26T21:12:04.650Z,101944.69
2022-10-26T21:14:35.821Z,101938.00
2022-10-26T21:17:03.642Z,101940.03
2022-10-26T21:19:32.955Z,101948.13
2022-10-26T21:22:01.416Z,101949.53
2022-10-26T21:24:29.785Z,101952.59
2022-10-26T21:26:57.751Z,101951.25
2022-10-26T21:29:25.670Z,101952.13
2022-10-26T21:31:53.548Z,101964.47
2022-10-26T21:34:21.395Z,101964.81
2022-10-26T21:36:50.567Z,101969.47
2022-10-26T21:39:18.445Z,101972.72
2022-10-26T21:41:46.303Z,101977.00
2022-10-26T21:44:25.982Z,101978.91
2022-10-26T21:47:02.027Z,101981.47
2022-10-26T21:49:29.917Z,101980.97
2022-10-26T21:51:59.159Z,101978.72
2022-10-26T21:54:27.149Z,101976.34
2022-10-26T21:56:55.137Z,101980.97
2022-10-26T21:59:23.012Z,101979.59
2022-10-26T22:01:51.086Z,101987.81
2022-10-26T22:04:19.039Z,101985.94
2022-10-26T22:06:46.870Z,101990.75
2022-10-26T22:09:16.105Z,101999.88
2022-10-26T22:11:43.995Z,102004.47
2022-10-26T22:14:13.589Z,101999.84
2022-10-26T22:16:42.195Z,101993.84
2022-10-26T22:19:10.635Z,101998.31
2022-10-26T22:21:40.648Z,102001.38
2022-10-26T22:24:09.712Z,101994.69
2022-10-26T22:26:39.462Z,101992.63
2022-10-26T22:29:07.521Z,101996.41
2022-10-26T22:31:38.211Z,101994.38
2022-10-26T22:34:08.510Z,101996.75
2022-10-26T22:36:36.650Z,102001.03
2022-10-26T22:39:04.814Z,101995.38
2022-10-26T22:41:32.872Z,101999.13
2022-10-26T22:44:02.059Z,102002.19
2022-10-26T22:46:30.297Z,102001.06
2022-10-26T22:48:59.895Z,101992.47
2022-10-26T22:51:29.478Z,101997.19
2022-10-26T22:53:59.174Z,102002.19
2022-10-26T22:56:28.462Z,101992.81
2022-10-26T22:58:56.770Z,101993.78
2022-10-26T23:01:28.576Z,102000.88
2022-10-26T23:03:57.103Z,101994.00
2022-10-26T23:06:26.965Z,101998.13
2022-10-26T23:08:55.174Z,102000.53
2022-10-26T23:11:24.840Z,102002.09
2022-10-26T23:13:54.063Z,102003.78
2022-10-26T23:16:22.524Z,102001.91
2022-10-26T23:18:53.228Z,102008.28
2022-10-26T23:21:22.197Z,102008.94
2022-10-26T23:23:50.378Z,102018.38
2022-10-26T23:26:20.987Z,102020.13
2022-10-26T23:28:49.831Z,102019.44
2022-10-26T23:31:19.600Z,102023.03
2022-10-26T23:33:47.992Z,102027.84
2022-10-26T23:36:17.244Z,102031.63
2022-10-26T23:38:45.519Z,102027.16
2022-10-26T23:41:13.824Z,102029.03
2022-10-26T23:43:41.753Z,102029.22
2022-10-26T23:46:09.637Z,102031.44
2022-10-26T23:48:37.632Z,102032.13
2022-10-26T23:51:05.902Z,102030.03
2022-10-26T23:53:35.441Z,102037.59
2022-10-26T23:56:03.411Z,102043.97
2022-10-26T23:58:31.274Z,102044.81
